sensor_id;sensor_type;location;lat;lon;timestamp;P1;durP1;ratioP1;P2;durP2;ratioP2
47615;SDS011;69146;52.266;7.000;2023-04-25T00:00:05;12.52;;;4.57;;
47615;SDS011;69146;52.266;7.000;2023-04-25T00:02:59;19.92;;;5.43;;
47615;SDS011;69146;52.266;7.000;2023-04-25T00:05:46;24.85;;;5.93;;
47615;SDS011;69146;52.266;7.000;2023-04-25T00:08:32;21.20;;;5.72;;
47615;SDS011;69146;52.266;7.000;2023-04-25T00:11:17;23.48;;;6.13;;
47615;SDS011;69146;52.266;7.000;2023-04-25T00:14:02;20.17;;;5.55;;
47615;SDS011;69146;52.266;7.000;2023-04-25T00:19:35;23.65;;;6.30;;
47615;SDS011;69146;52.266;7.000;2023-04-25T00:22:22;20.75;;;5.95;;
47615;SDS011;69146;52.266;7.000;2023-04-25T00:27:54;24.02;;;5.45;;
47615;SDS011;69146;52.266;7.000;2023-04-25T00:30:40;23.77;;;5.78;;
47615;SDS011;69146;52.266;7.000;2023-04-25T00:33:28;15.32;;;4.60;;
47615;SDS011;69146;52.266;7.000;2023-04-25T00:36:13;24.52;;;5.38;;
47615;SDS011;69146;52.266;7.000;2023-04-25T00:39:05;23.00;;;5.55;;
47615;SDS011;69146;52.266;7.000;2023-04-25T00:41:51;22.17;;;5.25;;
47615;SDS011;69146;52.266;7.000;2023-04-25T00:44:41;19.60;;;5.35;;
47615;SDS011;69146;52.266;7.000;2023-04-25T00:47:29;19.40;;;5.15;;
47615;SDS011;69146;52.266;7.000;2023-04-25T00:53:04;21.13;;;5.28;;
47615;SDS011;69146;52.266;7.000;2023-04-25T00:55:49;17.95;;;5.00;;
47615;SDS011;69146;52.266;7.000;2023-04-25T00:58:35;19.60;;;5.25;;
47615;SDS011;69146;52.266;7.000;2023-04-25T01:01:21;20.90;;;5.32;;
47615;SDS011;69146;52.266;7.000;2023-04-25T01:04:07;21.67;;;5.22;;
47615;SDS011;69146;52.266;7.000;2023-04-25T01:06:54;18.33;;;4.90;;
47615;SDS011;69146;52.266;7.000;2023-04-25T01:09:41;22.55;;;4.82;;
47615;SDS011;69146;52.266;7.000;2023-04-25T01:15:12;21.35;;;4.95;;
47615;SDS011;69146;52.266;7.000;2023-04-25T01:17:57;19.80;;;5.22;;
47615;SDS011;69146;52.266;7.000;2023-04-25T01:20:47;20.55;;;4.50;;
47615;SDS011;69146;52.266;7.000;2023-04-25T01:23:36;24.20;;;5.35;;
47615;SDS011;69146;52.266;7.000;2023-04-25T01:26:22;13.18;;;4.78;;
47615;SDS011;69146;52.266;7.000;2023-04-25T01:29:10;26.50;;;5.28;;
47615;SDS011;69146;52.266;7.000;2023-04-25T01:31:55;23.35;;;5.43;;
47615;SDS011;69146;52.266;7.000;2023-04-25T01:34:43;27.30;;;6.03;;
47615;SDS011;69146;52.266;7.000;2023-04-25T01:37:30;21.65;;;5.30;;
47615;SDS011;69146;52.266;7.000;2023-04-25T01:40:17;22.67;;;5.75;;
47615;SDS011;69146;52.266;7.000;2023-04-25T01:43:04;25.45;;;5.68;;
47615;SDS011;69146;52.266;7.000;2023-04-25T01:45:50;27.05;;;5.50;;
47615;SDS011;69146;52.266;7.000;2023-04-25T01:48:38;26.13;;;5.63;;
47615;SDS011;69146;52.266;7.000;2023-04-25T01:51:23;23.20;;;5.55;;
47615;SDS011;69146;52.266;7.000;2023-04-25T01:54:11;27.25;;;5.88;;
47615;SDS011;69146;52.266;7.000;2023-04-25T01:57:00;27.65;;;5.75;;
47615;SDS011;69146;52.266;7.000;2023-04-25T01:59:45;20.38;;;5.97;;
47615;SDS011;69146;52.266;7.000;2023-04-25T02:02:30;19.08;;;5.45;;
47615;SDS011;69146;52.266;7.000;2023-04-25T02:05:18;23.10;;;5.03;;
47615;SDS011;69146;52.266;7.000;2023-04-25T02:08:04;26.58;;;6.20;;
47615;SDS011;69146;52.266;7.000;2023-04-25T02:10:50;21.23;;;6.05;;
47615;SDS011;69146;52.266;7.000;2023-04-25T02:13:36;23.23;;;5.57;;
47615;SDS011;69146;52.266;7.000;2023-04-25T02:16:23;19.27;;;5.80;;
47615;SDS011;69146;52.266;7.000;2023-04-25T02:19:08;24.50;;;6.28;;
47615;SDS011;69146;52.266;7.000;2023-04-25T02:21:52;20.60;;;5.33;;
47615;SDS011;69146;52.266;7.000;2023-04-25T02:24:37;27.10;;;6.07;;
47615;SDS011;69146;52.266;7.000;2023-04-25T02:27:22;24.38;;;5.85;;
47615;SDS011;69146;52.266;7.000;2023-04-25T02:30:08;23.70;;;6.32;;
47615;SDS011;69146;52.266;7.000;2023-04-25T02:32:54;27.77;;;5.45;;
47615;SDS011;69146;52.266;7.000;2023-04-25T02:35:39;24.92;;;5.55;;
47615;SDS011;69146;52.266;7.000;2023-04-25T02:38:23;25.00;;;6.22;;
47615;SDS011;69146;52.266;7.000;2023-04-25T02:41:08;23.02;;;5.72;;
47615;SDS011;69146;52.266;7.000;2023-04-25T02:43:53;26.08;;;6.55;;
47615;SDS011;69146;52.266;7.000;2023-04-25T02:46:39;20.83;;;5.65;;
47615;SDS011;69146;52.266;7.000;2023-04-25T02:49:24;25.92;;;5.50;;
47615;SDS011;69146;52.266;7.000;2023-04-25T02:52:09;24.25;;;5.93;;
47615;SDS011;69146;52.266;7.000;2023-04-25T02:54:54;20.73;;;5.78;;
47615;SDS011;69146;52.266;7.000;2023-04-25T02:57:39;22.77;;;5.95;;
47615;SDS011;69146;52.266;7.000;2023-04-25T03:00:24;20.00;;;5.55;;
47615;SDS011;69146;52.266;7.000;2023-04-25T03:03:10;22.90;;;5.43;;
47615;SDS011;69146;52.266;7.000;2023-04-25T03:05:55;27.27;;;5.43;;
47615;SDS011;69146;52.266;7.000;2023-04-25T03:08:40;20.33;;;5.65;;
47615;SDS011;69146;52.266;7.000;2023-04-25T03:11:25;20.65;;;5.57;;
47615;SDS011;69146;52.266;7.000;2023-04-25T03:14:10;23.77;;;5.30;;
47615;SDS011;69146;52.266;7.000;2023-04-25T03:16:55;20.27;;;5.68;;
47615;SDS011;69146;52.266;7.000;2023-04-25T03:19:41;25.05;;;6.35;;
47615;SDS011;69146;52.266;7.000;2023-04-25T03:22:26;23.50;;;6.00;;
47615;SDS011;69146;52.266;7.000;2023-04-25T03:25:11;22.95;;;5.90;;
47615;SDS011;69146;52.266;7.000;2023-04-25T03:27:56;21.08;;;5.70;;
47615;SDS011;69146;52.266;7.000;2023-04-25T03:30:40;21.20;;;5.10;;
47615;SDS011;69146;52.266;7.000;2023-04-25T03:33:25;22.27;;;5.60;;
47615;SDS011;69146;52.266;7.000;2023-04-25T03:36:12;24.83;;;6.20;;
47615;SDS011;69146;52.266;7.000;2023-04-25T03:38:57;21.17;;;5.40;;
47615;SDS011;69146;52.266;7.000;2023-04-25T03:41:42;21.70;;;5.55;;
47615;SDS011;69146;52.266;7.000;2023-04-25T03:44:27;25.90;;;6.47;;
47615;SDS011;69146;52.266;7.000;2023-04-25T03:47:11;21.55;;;6.20;;
47615;SDS011;69146;52.266;7.000;2023-04-25T03:49:56;26.55;;;5.60;;
47615;SDS011;69146;52.266;7.000;2023-04-25T03:52:44;21.17;;;6.20;;
47615;SDS011;69146;52.266;7.000;2023-04-25T03:55:29;18.33;;;5.10;;
47615;SDS011;69146;52.266;7.000;2023-04-25T03:58:14;20.35;;;4.97;;
47615;SDS011;69146;52.266;7.000;2023-04-25T04:00:59;22.25;;;5.20;;
47615;SDS011;69146;52.266;7.000;2023-04-25T04:03:45;19.15;;;5.75;;
47615;SDS011;69146;52.266;7.000;2023-04-25T04:06:29;26.35;;;5.35;;
47615;SDS011;69146;52.266;7.000;2023-04-25T04:09:16;21.58;;;5.30;;
47615;SDS011;69146;52.266;7.000;2023-04-25T04:12:01;20.20;;;4.70;;
47615;SDS011;69146;52.266;7.000;2023-04-25T04:14:46;22.13;;;5.38;;
47615;SDS011;69146;52.266;7.000;2023-04-25T04:17:30;15.82;;;4.82;;
47615;SDS011;69146;52.266;7.000;2023-04-25T04:20:16;18.67;;;4.85;;
47615;SDS011;69146;52.266;7.000;2023-04-25T04:23:01;15.88;;;5.50;;
47615;SDS011;69146;52.266;7.000;2023-04-25T04:25:47;21.02;;;4.82;;
47615;SDS011;69146;52.266;7.000;2023-04-25T04:28:33;23.58;;;5.22;;
47615;SDS011;69146;52.266;7.000;2023-04-25T04:31:17;18.25;;;4.50;;
47615;SDS011;69146;52.266;7.000;2023-04-25T04:34:03;19.50;;;4.88;;
47615;SDS011;69146;52.266;7.000;2023-04-25T04:36:48;22.35;;;5.13;;
47615;SDS011;69146;52.266;7.000;2023-04-25T04:39:33;21.65;;;5.15;;
47615;SDS011;69146;52.266;7.000;2023-04-25T04:42:19;18.58;;;5.15;;
47615;SDS011;69146;52.266;7.000;2023-04-25T04:45:05;18.42;;;4.95;;
47615;SDS011;69146;52.266;7.000;2023-04-25T04:47:50;20.45;;;5.47;;
47615;SDS011;69146;52.266;7.000;2023-04-25T04:50:35;18.75;;;4.93;;
47615;SDS011;69146;52.266;7.000;2023-04-25T04:53:20;19.10;;;5.25;;
47615;SDS011;69146;52.266;7.000;2023-04-25T04:56:06;20.08;;;5.40;;
47615;SDS011;69146;52.266;7.000;2023-04-25T04:58:54;20.38;;;5.03;;
47615;SDS011;69146;52.266;7.000;2023-04-25T05:01:39;21.23;;;5.70;;
47615;SDS011;69146;52.266;7.000;2023-04-25T05:04:24;18.40;;;5.18;;
47615;SDS011;69146;52.266;7.000;2023-04-25T05:07:09;17.08;;;4.97;;
47615;SDS011;69146;52.266;7.000;2023-04-25T05:09:54;18.08;;;5.38;;
47615;SDS011;69146;52.266;7.000;2023-04-25T05:12:39;13.98;;;4.95;;
47615;SDS011;69146;52.266;7.000;2023-04-25T05:15:25;20.05;;;5.40;;
47615;SDS011;69146;52.266;7.000;2023-04-25T05:18:10;24.48;;;5.15;;
47615;SDS011;69146;52.266;7.000;2023-04-25T05:20:55;18.00;;;4.90;;
47615;SDS011;69146;52.266;7.000;2023-04-25T05:23:40;15.45;;;4.93;;
47615;SDS011;69146;52.266;7.000;2023-04-25T05:26:25;15.15;;;5.10;;
47615;SDS011;69146;52.266;7.000;2023-04-25T05:29:09;22.70;;;5.18;;
47615;SDS011;69146;52.266;7.000;2023-04-25T05:31:55;15.87;;;4.77;;
47615;SDS011;69146;52.266;7.000;2023-04-25T05:34:40;13.27;;;4.75;;
47615;SDS011;69146;52.266;7.000;2023-04-25T05:37:27;18.88;;;4.85;;
47615;SDS011;69146;52.266;7.000;2023-04-25T05:40:14;16.90;;;5.15;;
47615;SDS011;69146;52.266;7.000;2023-04-25T05:42:59;17.27;;;4.65;;
47615;SDS011;69146;52.266;7.000;2023-04-25T05:45:44;14.97;;;4.40;;
47615;SDS011;69146;52.266;7.000;2023-04-25T05:48:30;21.95;;;5.13;;
47615;SDS011;69146;52.266;7.000;2023-04-25T05:51:15;20.48;;;5.63;;
47615;SDS011;69146;52.266;7.000;2023-04-25T05:54:00;17.25;;;5.20;;
47615;SDS011;69146;52.266;7.000;2023-04-25T05:56:45;16.35;;;4.85;;
47615;SDS011;69146;52.266;7.000;2023-04-25T05:59:34;15.70;;;4.90;;
47615;SDS011;69146;52.266;7.000;2023-04-25T06:02:19;21.33;;;5.18;;
47615;SDS011;69146;52.266;7.000;2023-04-25T06:05:09;22.52;;;5.05;;
47615;SDS011;69146;52.266;7.000;2023-04-25T06:07:53;15.70;;;5.18;;
47615;SDS011;69146;52.266;7.000;2023-04-25T06:10:39;17.02;;;4.88;;
47615;SDS011;69146;52.266;7.000;2023-04-25T06:13:24;15.40;;;5.03;;
47615;SDS011;69146;52.266;7.000;2023-04-25T06:16:09;23.63;;;5.30;;
47615;SDS011;69146;52.266;7.000;2023-04-25T06:18:53;19.25;;;4.60;;
47615;SDS011;69146;52.266;7.000;2023-04-25T06:21:42;14.20;;;4.20;;
47615;SDS011;69146;52.266;7.000;2023-04-25T06:24:28;17.02;;;4.40;;
47615;SDS011;69146;52.266;7.000;2023-04-25T06:27:14;15.73;;;4.60;;
47615;SDS011;69146;52.266;7.000;2023-04-25T06:30:03;12.93;;;4.30;;
47615;SDS011;69146;52.266;7.000;2023-04-25T06:32:48;18.70;;;4.55;;
47615;SDS011;69146;52.266;7.000;2023-04-25T06:35:34;15.70;;;3.80;;
47615;SDS011;69146;52.266;7.000;2023-04-25T06:38:21;14.18;;;3.38;;
47615;SDS011;69146;52.266;7.000;2023-04-25T06:41:08;12.18;;;3.50;;
47615;SDS011;69146;52.266;7.000;2023-04-25T06:43:53;12.70;;;3.70;;
47615;SDS011;69146;52.266;7.000;2023-04-25T06:46:38;13.52;;;3.45;;
47615;SDS011;69146;52.266;7.000;2023-04-25T06:49:23;14.18;;;3.17;;
47615;SDS011;69146;52.266;7.000;2023-04-25T06:52:08;14.50;;;3.30;;
47615;SDS011;69146;52.266;7.000;2023-04-25T06:54:54;14.93;;;3.42;;
47615;SDS011;69146;52.266;7.000;2023-04-25T06:57:41;18.15;;;4.05;;
47615;SDS011;69146;52.266;7.000;2023-04-25T07:00:26;11.48;;;2.92;;
47615;SDS011;69146;52.266;7.000;2023-04-25T07:03:12;11.43;;;2.70;;
47615;SDS011;69146;52.266;7.000;2023-04-25T07:06:00;14.43;;;3.03;;
47615;SDS011;69146;52.266;7.000;2023-04-25T07:08:45;12.27;;;3.00;;
47615;SDS011;69146;52.266;7.000;2023-04-25T07:11:31;13.23;;;2.78;;
47615;SDS011;69146;52.266;7.000;2023-04-25T07:14:16;11.02;;;2.70;;
47615;SDS011;69146;52.266;7.000;2023-04-25T07:17:01;12.40;;;2.78;;
47615;SDS011;69146;52.266;7.000;2023-04-25T07:19:49;9.52;;;2.20;;
47615;SDS011;69146;52.266;7.000;2023-04-25T07:22:34;14.63;;;2.60;;
47615;SDS011;69146;52.266;7.000;2023-04-25T07:25:19;14.38;;;2.30;;
47615;SDS011;69146;52.266;7.000;2023-04-25T07:28:05;10.90;;;2.05;;
47615;SDS011;69146;52.266;7.000;2023-04-25T07:30:56;12.50;;;2.33;;
47615;SDS011;69146;52.266;7.000;2023-04-25T07:33:42;7.47;;;1.70;;
47615;SDS011;69146;52.266;7.000;2023-04-25T07:36:26;9.90;;;2.45;;
47615;SDS011;69146;52.266;7.000;2023-04-25T07:39:12;13.55;;;2.72;;
47615;SDS011;69146;52.266;7.000;2023-04-25T07:41:56;7.63;;;2.05;;
47615;SDS011;69146;52.266;7.000;2023-04-25T07:44:44;9.77;;;2.03;;
47615;SDS011;69146;52.266;7.000;2023-04-25T07:47:29;10.65;;;2.15;;
47615;SDS011;69146;52.266;7.000;2023-04-25T07:50:14;9.43;;;2.20;;
47615;SDS011;69146;52.266;7.000;2023-04-25T07:52:59;9.82;;;2.17;;
47615;SDS011;69146;52.266;7.000;2023-04-25T07:55:44;9.05;;;1.85;;
47615;SDS011;69146;52.266;7.000;2023-04-25T07:58:29;7.15;;;1.73;;
47615;SDS011;69146;52.266;7.000;2023-04-25T08:01:15;9.25;;;2.03;;
47615;SDS011;69146;52.266;7.000;2023-04-25T08:04:00;7.63;;;1.83;;
47615;SDS011;69146;52.266;7.000;2023-04-25T08:06:47;7.47;;;1.70;;
47615;SDS011;69146;52.266;7.000;2023-04-25T08:09:35;8.00;;;1.60;;
47615;SDS011;69146;52.266;7.000;2023-04-25T08:12:20;7.40;;;1.73;;
47615;SDS011;69146;52.266;7.000;2023-04-25T08:15:08;6.00;;;1.58;;
47615;SDS011;69146;52.266;7.000;2023-04-25T08:17:55;5.65;;;1.55;;
47615;SDS011;69146;52.266;7.000;2023-04-25T08:20:40;10.20;;;1.50;;
47615;SDS011;69146;52.266;7.000;2023-04-25T08:23:25;10.35;;;1.42;;
47615;SDS011;69146;52.266;7.000;2023-04-25T08:26:11;6.10;;;1.27;;
47615;SDS011;69146;52.266;7.000;2023-04-25T08:29:01;5.25;;;1.13;;
47615;SDS011;69146;52.266;7.000;2023-04-25T08:31:46;6.22;;;1.20;;
47615;SDS011;69146;52.266;7.000;2023-04-25T08:34:37;9.13;;;1.42;;
47615;SDS011;69146;52.266;7.000;2023-04-25T08:37:25;5.10;;;1.30;;
47615;SDS011;69146;52.266;7.000;2023-04-25T08:40:11;4.97;;;1.10;;
47615;SDS011;69146;52.266;7.000;2023-04-25T08:42:58;7.50;;;1.20;;
47615;SDS011;69146;52.266;7.000;2023-04-25T08:45:47;7.55;;;1.52;;
47615;SDS011;69146;52.266;7.000;2023-04-25T08:48:32;7.55;;;1.02;;
47615;SDS011;69146;52.266;7.000;2023-04-25T08:51:23;6.60;;;1.10;;
47615;SDS011;69146;52.266;7.000;2023-04-25T08:54:10;6.32;;;1.33;;
47615;SDS011;69146;52.266;7.000;2023-04-25T08:56:56;5.55;;;1.13;;
47615;SDS011;69146;52.266;7.000;2023-04-25T08:59:45;5.15;;;1.10;;
47615;SDS011;69146;52.266;7.000;2023-04-25T09:02:31;7.10;;;1.55;;
47615;SDS011;69146;52.266;7.000;2023-04-25T09:08:03;6.72;;;1.27;;
47615;SDS011;69146;52.266;7.000;2023-04-25T09:10:48;7.82;;;1.13;;
47615;SDS011;69146;52.266;7.000;2023-04-25T09:13:33;8.60;;;1.20;;
47615;SDS011;69146;52.266;7.000;2023-04-25T09:16:18;7.13;;;0.98;;
47615;SDS011;69146;52.266;7.000;2023-04-25T09:19:05;5.90;;;1.10;;
47615;SDS011;69146;52.266;7.000;2023-04-25T09:21:50;11.07;;;1.92;;
47615;SDS011;69146;52.266;7.000;2023-04-25T09:24:39;8.82;;;1.30;;
47615;SDS011;69146;52.266;7.000;2023-04-25T09:27:27;5.32;;;1.40;;
47615;SDS011;69146;52.266;7.000;2023-04-25T09:30:12;10.00;;;1.45;;
47615;SDS011;69146;52.266;7.000;2023-04-25T09:33:03;6.47;;;1.10;;
47615;SDS011;69146;52.266;7.000;2023-04-25T09:35:49;7.28;;;1.25;;
47615;SDS011;69146;52.266;7.000;2023-04-25T09:38:39;7.38;;;0.93;;
47615;SDS011;69146;52.266;7.000;2023-04-25T09:41:27;6.03;;;0.80;;
47615;SDS011;69146;52.266;7.000;2023-04-25T09:44:19;4.25;;;0.90;;
47615;SDS011;69146;52.266;7.000;2023-04-25T09:47:09;5.40;;;0.80;;
47615;SDS011;69146;52.266;7.000;2023-04-25T09:49:55;6.65;;;1.15;;
47615;SDS011;69146;52.266;7.000;2023-04-25T09:52:40;8.90;;;1.55;;
47615;SDS011;69146;52.266;7.000;2023-04-25T09:58:11;5.43;;;1.17;;
47615;SDS011;69146;52.266;7.000;2023-04-25T10:01:01;7.95;;;1.42;;
47615;SDS011;69146;52.266;7.000;2023-04-25T10:03:47;5.18;;;1.50;;
47615;SDS011;69146;52.266;7.000;2023-04-25T10:06:35;5.22;;;1.33;;
47615;SDS011;69146;52.266;7.000;2023-04-25T10:09:21;6.70;;;0.98;;
47615;SDS011;69146;52.266;7.000;2023-04-25T10:12:14;4.30;;;0.60;;
47615;SDS011;69146;52.266;7.000;2023-04-25T10:15:02;2.90;;;0.75;;
47615;SDS011;69146;52.266;7.000;2023-04-25T10:17:48;4.75;;;0.90;;
47615;SDS011;69146;52.266;7.000;2023-04-25T10:20:34;5.07;;;0.88;;
47615;SDS011;69146;52.266;7.000;2023-04-25T10:23:22;2.58;;;0.75;;
47615;SDS011;69146;52.266;7.000;2023-04-25T10:28:57;4.93;;;0.80;;
47615;SDS011;69146;52.266;7.000;2023-04-25T10:31:48;6.90;;;1.10;;
47615;SDS011;69146;52.266;7.000;2023-04-25T10:34:40;5.00;;;0.80;;
47615;SDS011;69146;52.266;7.000;2023-04-25T10:37:27;6.95;;;0.82;;
47615;SDS011;69146;52.266;7.000;2023-04-25T10:40:15;7.07;;;1.13;;
47615;SDS011;69146;52.266;7.000;2023-04-25T10:46:27;5.13;;;1.00;;
47615;SDS011;69146;52.266;7.000;2023-04-25T10:49:30;6.95;;;1.02;;
47615;SDS011;69146;52.266;7.000;2023-04-25T10:52:25;7.05;;;1.05;;
47615;SDS011;69146;52.266;7.000;2023-04-25T10:55:16;5.10;;;0.63;;
47615;SDS011;69146;52.266;7.000;2023-04-25T10:58:01;5.60;;;1.17;;
47615;SDS011;69146;52.266;7.000;2023-04-25T11:00:49;6.88;;;1.10;;
47615;SDS011;69146;52.266;7.000;2023-04-25T11:03:37;7.07;;;1.17;;
47615;SDS011;69146;52.266;7.000;2023-04-25T11:06:28;5.75;;;1.08;;
47615;SDS011;69146;52.266;7.000;2023-04-25T11:09:23;4.10;;;0.90;;
47615;SDS011;69146;52.266;7.000;2023-04-25T11:12:08;6.85;;;0.98;;
47615;SDS011;69146;52.266;7.000;2023-04-25T11:14:58;6.60;;;1.10;;
47615;SDS011;69146;52.266;7.000;2023-04-25T11:17:46;6.22;;;1.60;;
47615;SDS011;69146;52.266;7.000;2023-04-25T11:20:35;6.32;;;1.20;;
47615;SDS011;69146;52.266;7.000;2023-04-25T11:23:21;6.88;;;1.20;;
47615;SDS011;69146;52.266;7.000;2023-04-25T11:26:09;4.50;;;1.00;;
47615;SDS011;69146;52.266;7.000;2023-04-25T11:28:58;7.95;;;1.45;;
47615;SDS011;69146;52.266;7.000;2023-04-25T11:31:45;6.05;;;1.15;;
47615;SDS011;69146;52.266;7.000;2023-04-25T11:34:33;5.15;;;0.80;;
47615;SDS011;69146;52.266;7.000;2023-04-25T11:40:05;6.20;;;1.25;;
47615;SDS011;69146;52.266;7.000;2023-04-25T11:42:53;7.00;;;1.08;;
47615;SDS011;69146;52.266;7.000;2023-04-25T11:45:37;2.58;;;0.90;;
47615;SDS011;69146;52.266;7.000;2023-04-25T11:48:22;6.10;;;0.95;;
47615;SDS011;69146;52.266;7.000;2023-04-25T11:51:07;6.28;;;1.10;;
47615;SDS011;69146;52.266;7.000;2023-04-25T11:53:53;4.85;;;1.17;;
47615;SDS011;69146;52.266;7.000;2023-04-25T11:56:39;6.50;;;1.10;;
47615;SDS011;69146;52.266;7.000;2023-04-25T11:59:26;4.72;;;0.85;;
47615;SDS011;69146;52.266;7.000;2023-04-25T12:02:23;5.50;;;1.05;;
47615;SDS011;69146;52.266;7.000;2023-04-25T12:05:09;3.30;;;0.70;;
47615;SDS011;69146;52.266;7.000;2023-04-25T12:08:00;5.32;;;1.33;;
47615;SDS011;69146;52.266;7.000;2023-04-25T12:10:54;7.78;;;2.10;;
47615;SDS011;69146;52.266;7.000;2023-04-25T12:13:40;7.50;;;1.27;;
47615;SDS011;69146;52.266;7.000;2023-04-25T12:16:28;7.18;;;1.23;;
47615;SDS011;69146;52.266;7.000;2023-04-25T12:19:13;7.45;;;1.30;;
47615;SDS011;69146;52.266;7.000;2023-04-25T12:21:59;9.35;;;1.60;;
47615;SDS011;69146;52.266;7.000;2023-04-25T12:24:45;5.80;;;1.60;;
47615;SDS011;69146;52.266;7.000;2023-04-25T12:27:30;6.32;;;1.33;;
47615;SDS011;69146;52.266;7.000;2023-04-25T12:30:17;6.38;;;1.30;;
47615;SDS011;69146;52.266;7.000;2023-04-25T12:33:02;3.72;;;1.00;;
47615;SDS011;69146;52.266;7.000;2023-04-25T12:35:47;3.30;;;1.23;;
47615;SDS011;69146;52.266;7.000;2023-04-25T12:38:34;5.43;;;1.10;;
47615;SDS011;69146;52.266;7.000;2023-04-25T12:41:20;5.53;;;1.15;;
47615;SDS011;69146;52.266;7.000;2023-04-25T12:44:05;5.05;;;0.90;;
47615;SDS011;69146;52.266;7.000;2023-04-25T12:46:52;4.95;;;0.88;;
47615;SDS011;69146;52.266;7.000;2023-04-25T12:49:38;4.95;;;1.33;;
47615;SDS011;69146;52.266;7.000;2023-04-25T12:52:23;6.15;;;0.90;;
47615;SDS011;69146;52.266;7.000;2023-04-25T12:55:08;7.68;;;1.40;;
47615;SDS011;69146;52.266;7.000;2023-04-25T12:57:53;4.43;;;1.08;;
47615;SDS011;69146;52.266;7.000;2023-04-25T13:00:38;5.93;;;0.80;;
47615;SDS011;69146;52.266;7.000;2023-04-25T13:03:24;6.57;;;1.13;;
47615;SDS011;69146;52.266;7.000;2023-04-25T13:06:09;3.97;;;1.00;;
47615;SDS011;69146;52.266;7.000;2023-04-25T13:08:54;4.18;;;1.00;;
47615;SDS011;69146;52.266;7.000;2023-04-25T13:11:39;6.80;;;1.20;;
47615;SDS011;69146;52.266;7.000;2023-04-25T13:14:25;6.25;;;1.05;;
47615;SDS011;69146;52.266;7.000;2023-04-25T13:17:10;7.43;;;1.30;;
47615;SDS011;69146;52.266;7.000;2023-04-25T13:19:56;5.27;;;0.93;;
47615;SDS011;69146;52.266;7.000;2023-04-25T13:22:41;4.47;;;1.10;;
47615;SDS011;69146;52.266;7.000;2023-04-25T13:25:27;4.53;;;1.10;;
47615;SDS011;69146;52.266;7.000;2023-04-25T13:28:12;7.35;;;1.20;;
47615;SDS011;69146;52.266;7.000;2023-04-25T13:30:57;4.20;;;0.70;;
47615;SDS011;69146;52.266;7.000;2023-04-25T13:33:42;4.82;;;0.90;;
47615;SDS011;69146;52.266;7.000;2023-04-25T13:36:29;4.05;;;0.70;;
47615;SDS011;69146;52.266;7.000;2023-04-25T13:39:14;3.20;;;0.63;;
47615;SDS011;69146;52.266;7.000;2023-04-25T13:41:59;5.65;;;0.90;;
47615;SDS011;69146;52.266;7.000;2023-04-25T13:44:46;3.80;;;0.90;;
47615;SDS011;69146;52.266;7.000;2023-04-25T13:47:31;3.65;;;0.90;;
47615;SDS011;69146;52.266;7.000;2023-04-25T13:50:16;5.53;;;1.02;;
47615;SDS011;69146;52.266;7.000;2023-04-25T13:53:02;4.85;;;1.05;;
47615;SDS011;69146;52.266;7.000;2023-04-25T13:55:47;5.20;;;1.10;;
47615;SDS011;69146;52.266;7.000;2023-04-25T13:58:32;2.30;;;0.85;;
47615;SDS011;69146;52.266;7.000;2023-04-25T14:01:20;5.90;;;0.70;;
47615;SDS011;69146;52.266;7.000;2023-04-25T14:04:06;2.70;;;0.50;;
47615;SDS011;69146;52.266;7.000;2023-04-25T14:06:51;3.40;;;0.82;;
47615;SDS011;69146;52.266;7.000;2023-04-25T14:09:37;3.47;;;0.60;;
47615;SDS011;69146;52.266;7.000;2023-04-25T14:12:22;3.25;;;0.60;;
47615;SDS011;69146;52.266;7.000;2023-04-25T14:15:08;3.30;;;0.80;;
47615;SDS011;69146;52.266;7.000;2023-04-25T14:17:53;3.65;;;0.70;;
47615;SDS011;69146;52.266;7.000;2023-04-25T14:20:38;4.75;;;1.00;;
47615;SDS011;69146;52.266;7.000;2023-04-25T14:23:23;4.32;;;0.68;;
47615;SDS011;69146;52.266;7.000;2023-04-25T14:26:09;3.58;;;0.80;;
47615;SDS011;69146;52.266;7.000;2023-04-25T14:28:58;6.30;;;1.00;;
47615;SDS011;69146;52.266;7.000;2023-04-25T14:31:43;3.05;;;0.90;;
47615;SDS011;69146;52.266;7.000;2023-04-25T14:34:29;5.80;;;0.93;;
47615;SDS011;69146;52.266;7.000;2023-04-25T14:37:15;6.43;;;1.40;;
47615;SDS011;69146;52.266;7.000;2023-04-25T14:40:00;6.40;;;0.95;;
47615;SDS011;69146;52.266;7.000;2023-04-25T14:42:47;4.60;;;1.35;;
47615;SDS011;69146;52.266;7.000;2023-04-25T14:45:35;5.05;;;1.50;;
47615;SDS011;69146;52.266;7.000;2023-04-25T14:48:21;3.65;;;1.10;;
47615;SDS011;69146;52.266;7.000;2023-04-25T14:51:08;3.28;;;0.80;;
47615;SDS011;69146;52.266;7.000;2023-04-25T14:53:53;3.35;;;0.98;;
47615;SDS011;69146;52.266;7.000;2023-04-25T14:56:40;5.25;;;0.93;;
47615;SDS011;69146;52.266;7.000;2023-04-25T14:59:26;6.90;;;1.30;;
47615;SDS011;69146;52.266;7.000;2023-04-25T15:02:11;5.03;;;1.00;;
47615;SDS011;69146;52.266;7.000;2023-04-25T15:04:56;5.07;;;1.00;;
47615;SDS011;69146;52.266;7.000;2023-04-25T15:07:41;5.35;;;1.00;;
47615;SDS011;69146;52.266;7.000;2023-04-25T15:10:26;3.60;;;0.90;;
47615;SDS011;69146;52.266;7.000;2023-04-25T15:13:12;4.57;;;1.20;;
47615;SDS011;69146;52.266;7.000;2023-04-25T15:15:58;4.25;;;1.23;;
47615;SDS011;69146;52.266;7.000;2023-04-25T15:18:43;5.18;;;1.08;;
47615;SDS011;69146;52.266;7.000;2023-04-25T15:21:28;4.70;;;1.20;;
47615;SDS011;69146;52.266;7.000;2023-04-25T15:24:13;5.20;;;1.45;;
47615;SDS011;69146;52.266;7.000;2023-04-25T15:26:59;6.18;;;1.50;;
47615;SDS011;69146;52.266;7.000;2023-04-25T15:29:43;7.13;;;1.67;;
47615;SDS011;69146;52.266;7.000;2023-04-25T15:32:30;9.73;;;1.52;;
47615;SDS011;69146;52.266;7.000;2023-04-25T15:35:15;6.63;;;1.42;;
47615;SDS011;69146;52.266;7.000;2023-04-25T15:38:00;6.13;;;1.48;;
47615;SDS011;69146;52.266;7.000;2023-04-25T15:40:45;4.43;;;0.93;;
47615;SDS011;69146;52.266;7.000;2023-04-25T15:43:30;4.30;;;0.90;;
47615;SDS011;69146;52.266;7.000;2023-04-25T15:46:14;5.55;;;1.05;;
47615;SDS011;69146;52.266;7.000;2023-04-25T15:49:02;5.55;;;1.48;;
47615;SDS011;69146;52.266;7.000;2023-04-25T15:51:47;3.60;;;1.50;;
47615;SDS011;69146;52.266;7.000;2023-04-25T15:54:32;4.43;;;1.30;;
47615;SDS011;69146;52.266;7.000;2023-04-25T15:57:18;6.88;;;1.48;;
47615;SDS011;69146;52.266;7.000;2023-04-25T16:00:04;5.60;;;1.15;;
47615;SDS011;69146;52.266;7.000;2023-04-25T16:02:53;6.18;;;1.60;;
47615;SDS011;69146;52.266;7.000;2023-04-25T16:05:41;4.72;;;1.42;;
47615;SDS011;69146;52.266;7.000;2023-04-25T16:08:26;3.72;;;1.10;;
47615;SDS011;69146;52.266;7.000;2023-04-25T16:11:12;4.93;;;1.40;;
47615;SDS011;69146;52.266;7.000;2023-04-25T16:13:57;4.20;;;1.20;;
47615;SDS011;69146;52.266;7.000;2023-04-25T16:16:45;3.85;;;0.93;;
47615;SDS011;69146;52.266;7.000;2023-04-25T16:19:33;5.78;;;0.82;;
47615;SDS011;69146;52.266;7.000;2023-04-25T16:22:19;4.28;;;1.08;;
47615;SDS011;69146;52.266;7.000;2023-04-25T16:25:07;3.28;;;1.02;;
47615;SDS011;69146;52.266;7.000;2023-04-25T16:27:56;3.58;;;0.90;;
47615;SDS011;69146;52.266;7.000;2023-04-25T16:30:41;2.85;;;0.93;;
47615;SDS011;69146;52.266;7.000;2023-04-25T16:33:25;5.23;;;1.10;;
47615;SDS011;69146;52.266;7.000;2023-04-25T16:36:10;6.45;;;1.40;;
47615;SDS011;69146;52.266;7.000;2023-04-25T16:38:59;7.32;;;1.75;;
47615;SDS011;69146;52.266;7.000;2023-04-25T16:41:44;6.82;;;1.67;;
47615;SDS011;69146;52.266;7.000;2023-04-25T16:44:29;5.03;;;0.98;;
47615;SDS011;69146;52.266;7.000;2023-04-25T16:47:14;6.13;;;1.25;;
47615;SDS011;69146;52.266;7.000;2023-04-25T16:49:59;5.22;;;1.27;;
47615;SDS011;69146;52.266;7.000;2023-04-25T16:52:45;5.90;;;0.95;;
47615;SDS011;69146;52.266;7.000;2023-04-25T16:55:31;5.93;;;1.58;;
47615;SDS011;69146;52.266;7.000;2023-04-25T16:58:24;4.93;;;1.20;;